Time;durP1;ratioP1;P1;durP2;ratioP2;P2;SDS_P1;SDS_P2;PMS_P1;PMS_P2;Temp;Humidity;BMP_temperature;BMP_pressure;BME280_temperature;BME280_humidity;BME280_pressure;Samples;Min_cycle;Max_cycle;Signal;HPM_P1;HPM_P2
2022/05/18 00:00:20;;;;;;;7.18;4.75;;;13.60;99.90;;;;;;6275440;22;20091;-89
2022/05/18 00:03:10;;;;;;;13.90;5.43;;;13.60;99.90;;;;;;6275479;22;20027;-89
2022/05/18 00:06:02;;;;;;;9.05;5.03;;;13.50;99.90;;;;;;6277767;22;20131;-89
2022/05/18 00:08:55;;;;;;;8.98;5.05;;;13.50;99.90;;;;;;6275597;22;20118;-90
2022/05/18 00:11:42;;;;;;;9.65;5.07;;;13.40;99.90;;;;;;6275014;22;20023;-89
2022/05/18 00:14:30;;;;;;;5.97;4.40;;;13.40;99.90;;;;;;6278416;22;20030;-89
2022/05/18 00:17:17;;;;;;;6.28;4.90;;;13.40;99.90;;;;;;6277839;22;20067;-89
2022/05/18 00:20:05;;;;;;;13.18;5.95;;;13.40;99.90;;;;;;6275789;22;20035;-88
2022/05/18 00:22:59;;;;;;;8.18;4.80;;;13.40;99.90;;;;;;6276153;22;20027;-89
2022/05/18 00:25:46;;;;;;;8.10;5.13;;;13.30;99.90;;;;;;6253413;22;20023;-89
2022/05/18 00:28:33;;;;;;;9.40;5.95;;;13.10;99.90;;;;;;6257075;22;20027;-90
2022/05/18 00:31:23;;;;;;;14.32;5.75;;;13.10;99.90;;;;;;6276160;22;20032;-90
2022/05/18 00:34:12;;;;;;;10.43;4.93;;;13.10;99.90;;;;;;6274644;22;20313;-88
2022/05/18 00:37:01;;;;;;;10.82;5.40;;;13.10;99.90;;;;;;6253583;22;20032;-89
2022/05/18 00:39:51;;;;;;;8.05;5.20;;;13.10;99.90;;;;;;6277647;22;20028;-87
2022/05/18 00:42:38;;;;;;;9.63;5.32;;;13.10;99.90;;;;;;6278087;22;20082;-89
2022/05/18 00:45:26;;;;;;;9.95;5.18;;;13.00;99.90;;;;;;6275987;22;20031;-89
2022/05/18 00:48:13;;;;;;;7.97;5.00;;;13.00;99.90;;;;;;6279015;22;20378;-89
2022/05/18 00:51:06;;;;;;;8.85;5.60;;;13.10;99.90;;;;;;6254696;22;20023;-90
2022/05/18 00:54:02;;;;;;;9.32;5.65;;;13.20;99.90;;;;;;6274644;22;20019;-89
2022/05/18 00:57:13;;;;;;;7.65;5.28;;;13.20;99.90;;;;;;6275751;22;20085;-90
2022/05/18 01:00:21;;;;;;;10.38;5.13;;;13.20;99.90;;;;;;6252896;22;20070;-88
2022/05/18 01:03:31;;;;;;;9.43;5.07;;;13.20;99.90;;;;;;6274420;22;20035;-89
2022/05/18 01:06:36;;;;;;;7.32;5.18;;;13.10;99.90;;;;;;6274390;22;20112;-89
2022/05/18 01:09:44;;;;;;;8.63;5.32;;;12.90;99.90;;;;;;6275602;22;20027;-89
2022/05/18 01:12:31;;;;;;;19.48;5.63;;;12.90;99.90;;;;;;6254198;22;20285;-89
2022/05/18 01:15:24;;;;;;;7.50;5.13;;;12.80;99.90;;;;;;6284290;22;20186;-89
2022/05/18 01:18:13;;;;;;;;;;;12.70;99.90;;;;;;6285485;22;20023;-90
2022/05/18 01:21:00;;;;;;;9.57;5.57;;;12.70;99.90;;;;;;6283921;22;20275;-89
2022/05/18 01:24:17;;;;;;;9.93;6.53;;;12.60;99.90;;;;;;6283006;22;20099;-90
2022/05/18 01:27:05;;;;;;;11.10;5.65;;;12.70;99.90;;;;;;6276597;22;20046;-90
2022/05/18 01:29:53;;;;;;;11.10;7.07;;;12.70;99.90;;;;;;6275152;22;20023;-89
2022/05/18 01:32:43;;;;;;;8.55;6.60;;;12.60;99.90;;;;;;6275605;22;20122;-89
2022/05/18 01:35:38;;;;;;;10.38;6.05;;;12.50;99.90;;;;;;6251850;22;20081;-89
2022/05/18 01:38:25;;;;;;;12.13;6.45;;;12.40;99.90;;;;;;6252706;22;20051;-90
2022/05/18 01:41:21;;;;;;;10.07;5.78;;;12.40;99.90;;;;;;6253113;22;20117;-89
2022/05/18 01:44:09;;;;;;;10.85;6.03;;;12.30;99.90;;;;;;6277973;22;20032;-89
2022/05/18 01:46:56;;;;;;;7.00;5.53;;;12.30;99.90;;;;;;6277074;22;20031;-89
2022/05/18 01:49:47;;;;;;;11.13;6.30;;;12.30;99.90;;;;;;6254378;22;20097;-89
2022/05/18 01:52:35;;;;;;;9.93;5.60;;;12.40;99.90;;;;;;6274918;22;20023;-90
2022/05/18 01:55:27;;;;;;;12.40;6.35;;;12.30;99.90;;;;;;6255608;22;20354;-89
2022/05/18 01:58:15;;;;;;;9.63;5.70;;;12.20;99.90;;;;;;6255830;22;20296;-88
2022/05/18 02:01:03;;;;;;;7.90;5.57;;;12.20;99.90;;;;;;6277098;22;20031;-88
2022/05/18 02:03:53;;;;;;;13.32;6.20;;;12.10;99.90;;;;;;6281639;22;20023;-90
2022/05/18 02:06:40;;;;;;;9.23;6.90;;;12.10;99.90;;;;;;6286251;22;20348;-89
2022/05/18 02:09:28;;;;;;;10.48;5.85;;;12.20;99.90;;;;;;6264143;22;20032;-90
2022/05/18 02:12:16;;;;;;;8.50;5.80;;;12.20;99.90;;;;;;6254440;22;20081;-90
2022/05/18 02:15:04;;;;;;;8.00;5.10;;;12.20;99.90;;;;;;6273050;22;20099;-84
2022/05/18 02:17:52;;;;;;;7.30;5.18;;;12.20;99.90;;;;;;6275059;22;20054;-91
2022/05/18 02:20:40;;;;;;;6.55;5.30;;;12.10;99.90;;;;;;6276019;22;20097;-88
2022/05/18 02:23:27;;;;;;;7.28;6.10;;;12.00;99.90;;;;;;6275196;22;20079;-88
2022/05/18 02:26:17;;;;;;;9.32;6.18;;;11.90;99.90;;;;;;6253726;22;20023;-90
2022/05/18 02:29:07;;;;;;;7.95;6.18;;;11.80;99.90;;;;;;6273929;22;20059;-88
2022/05/18 02:31:54;;;;;;;8.10;6.45;;;11.80;99.90;;;;;;6276086;22;20050;-89
2022/05/18 02:34:41;;;;;;;8.93;6.13;;;11.70;99.90;;;;;;6275837;22;20019;-90
2022/05/18 02:37:28;;;;;;;8.02;5.88;;;11.80;99.90;;;;;;6274019;22;20434;-91
2022/05/18 02:40:16;;;;;;;11.65;6.50;;;11.80;99.90;;;;;;6252460;22;20027;-91
2022/05/18 02:43:05;;;;;;;10.32;6.35;;;11.80;99.90;;;;;;6276947;22;20015;-90
2022/05/18 02:46:14;;;;;;;15.02;8.07;;;11.80;99.90;;;;;;6275205;22;20044;-89
2022/05/18 02:49:01;;;;;;;11.65;7.35;;;11.80;99.90;;;;;;6276802;22;20027;-91
2022/05/18 02:51:49;;;;;;;9.65;7.70;;;11.70;99.90;;;;;;6279102;22;20027;-90
2022/05/18 02:57:42;;;;;;;12.00;7.60;;;11.70;99.90;;;;;;6274338;22;20276;-90
2022/05/18 03:00:29;;;;;;;15.27;8.48;;;11.70;99.90;;;;;;6274529;22;20121;-90
2022/05/18 03:03:16;;;;;;;15.80;8.10;;;11.60;99.90;;;;;;6274621;22;20628;-91
2022/05/18 03:06:06;;;;;;;13.85;8.18;;;11.60;99.90;;;;;;6274887;22;20039;-89
2022/05/18 03:08:53;;;;;;;11.20;6.97;;;11.70;99.90;;;;;;6275413;22;20020;-88
2022/05/18 03:11:41;;;;;;;11.07;7.20;;;11.80;99.90;;;;;;6274117;22;20414;-88
2022/05/18 03:14:28;;;;;;;8.05;6.25;;;11.90;99.90;;;;;;6273438;22;20023;-89
2022/05/18 03:17:20;;;;;;;8.98;7.05;;;11.90;99.90;;;;;;6275586;22;20019;-89
2022/05/18 03:23:33;;;;;;;12.83;7.10;;;11.80;99.90;;;;;;6274106;22;20024;-90
2022/05/18 03:23:34;;;;;;;9.82;6.72;;;11.70;99.90;;;;;;6275823;22;20030;-89
2022/05/18 03:26:23;;;;;;;12.88;7.38;;;11.80;99.90;;;;;;6274152;22;20082;-88
2022/05/18 03:29:11;;;;;;;10.45;7.68;;;11.70;99.90;;;;;;6273517;22;20024;-89
2022/05/18 03:32:00;;;;;;;12.25;8.57;;;11.60;99.90;;;;;;6274254;22;20085;-89
2022/05/18 03:34:49;;;;;;;12.05;8.35;;;11.60;99.90;;;;;;6277405;22;20099;-89
2022/05/18 03:37:37;;;;;;;10.85;8.38;;;11.60;99.90;;;;;;6253384;22;20085;-89
2022/05/18 03:40:25;;;;;;;13.82;9.32;;;11.50;99.90;;;;;;6277778;22;20023;-89
2022/05/18 03:43:13;;;;;;;13.38;8.80;;;11.50;99.90;;;;;;6283135;22;20028;-89
2022/05/18 03:46:03;;;;;;;13.27;9.30;;;11.50;99.90;;;;;;6282096;22;20034;-89
2022/05/18 03:48:52;;;;;;;14.88;8.73;;;11.50;99.90;;;;;;6282653;22;20091;-90
2022/05/18 03:51:40;;;;;;;13.20;8.93;;;11.40;99.90;;;;;;6259299;22;20024;-89
2022/05/18 03:54:27;;;;;;;11.45;8.98;;;11.40;99.90;;;;;;6271278;22;20120;-87
2022/05/18 03:57:14;;;;;;;15.50;8.85;;;11.30;99.90;;;;;;6271780;22;20417;-89
2022/05/18 04:00:06;;;;;;;18.30;9.40;;;11.40;99.90;;;;;;6270166;22;20031;-89
2022/05/18 04:02:53;;;;;;;12.93;9.32;;;11.50;99.90;;;;;;6270048;22;20101;-90
2022/05/18 04:05:40;;;;;;;12.20;8.98;;;11.60;99.90;;;;;;6277265;22;20142;-88
2022/05/18 04:08:27;;;;;;;11.30;8.80;;;11.60;99.90;;;;;;6275377;22;20042;-88
2022/05/18 04:11:15;;;;;;;11.73;8.48;;;11.60;99.90;;;;;;6274009;22;20055;-90
2022/05/18 04:14:05;;;;;;;15.55;9.07;;;11.70;99.90;;;;;;6274644;22;20059;-90
2022/05/18 04:16:52;;;;;;;13.45;9.30;;;11.70;99.90;;;;;;6275325;22;20118;-90
2022/05/18 04:23:41;;;;;;;13.15;8.70;;;11.90;99.90;;;;;;6275747;22;20099;-88
2022/05/18 04:26:28;;;;;;;13.18;8.27;;;12.00;99.90;;;;;;6273789;22;20039;-91
2022/05/18 04:29:17;;;;;;;10.23;7.78;;;12.10;99.90;;;;;;6274110;22;20395;-90
2022/05/18 04:32:05;;;;;;;10.25;7.07;;;12.20;99.90;;;;;;6276346;22;20120;-90
2022/05/18 04:34:54;;;;;;;16.20;7.03;;;12.40;99.90;;;;;;6282807;22;20023;-90
2022/05/18 04:37:41;;;;;;;11.32;7.97;;;12.50;99.90;;;;;;6277050;22;20054;-90
2022/05/18 04:40:28;;;;;;;10.20;7.38;;;12.60;99.90;;;;;;6278162;22;20023;-88
2022/05/18 04:43:18;;;;;;;12.65;6.80;;;12.80;99.90;;;;;;6276209;22;20090;-89
2022/05/18 04:46:06;;;;;;;12.60;6.93;;;13.00;99.90;;;;;;6275165;22;20027;-89
2022/05/18 04:53:01;;;;;;;11.07;6.43;;;13.30;99.90;;;;;;6276063;22;20090;-88
2022/05/18 04:55:49;;;;;;;9.07;6.30;;;13.60;99.90;;;;;;6276823;22;20311;-89
2022/05/18 04:58:37;;;;;;;8.05;5.60;;;13.80;99.90;;;;;;6275950;22;20040;-87
2022/05/18 05:01:26;;;;;;;9.57;4.97;;;13.90;99.90;;;;;;6256539;22;20030;-88
2022/05/18 05:04:14;;;;;;;6.50;4.88;;;14.20;99.90;;;;;;6251673;22;20417;-87
2022/05/18 05:07:02;;;;;;;11.77;4.72;;;14.60;99.90;;;;;;6249367;22;20426;-87
2022/05/18 05:09:51;;;;;;;8.05;4.50;;;14.90;99.90;;;;;;6275555;22;20596;-87
2022/05/18 05:12:38;;;;;;;7.07;4.60;;;15.00;99.90;;;;;;6275422;22;20395;-85
2022/05/18 05:15:26;;;;;;;9.60;4.40;;;15.20;99.90;;;;;;6276655;22;20399;-86
2022/05/18 05:18:13;;;;;;;8.15;4.45;;;15.30;99.90;;;;;;6278586;22;20113;-85
2022/05/18 05:21:04;;;;;;;8.80;4.38;;;15.40;99.90;;;;;;6256688;22;20039;-86
2022/05/18 05:23:51;;;;;;;9.20;4.40;;;15.50;99.90;;;;;;6254524;22;20028;-88
2022/05/18 05:26:39;;;;;;;6.03;4.07;;;15.60;99.90;;;;;;6278210;22;20129;-88
2022/05/18 05:29:29;;;;;;;7.72;4.00;;;15.70;99.90;;;;;;6275126;22;20024;-89
2022/05/18 05:32:17;;;;;;;9.07;4.22;;;15.80;99.90;;;;;;6274753;22;20474;-88
2022/05/18 05:35:06;;;;;;;8.68;4.60;;;15.90;99.90;;;;;;6275798;22;20039;-89
2022/05/18 05:37:53;;;;;;;7.32;4.75;;;16.10;99.90;;;;;;6276571;22;20093;-85
2022/05/18 05:41:19;;;;;;;5.60;4.38;;;16.20;99.90;;;;;;6269686;22;20032;-86
2022/05/18 05:44:25;;;;;;;7.18;4.00;;;16.30;99.90;;;;;;6252088;22;20368;-88
2022/05/18 05:47:19;;;;;;;8.48;4.35;;;16.30;99.90;;;;;;6278899;22;20028;-87
2022/05/18 05:50:07;;;;;;;7.00;4.32;;;16.40;99.90;;;;;;6278962;22;20024;-88
2022/05/18 05:53:13;;;;;;;4.40;3.95;;;16.50;99.90;;;;;;6278986;22;20431;-88
2022/05/18 05:56:20;;;;;;;6.65;4.30;;;16.50;99.90;;;;;;6278696;22;20023;-88
2022/05/18 05:59:07;;;;;;;6.78;4.15;;;16.60;99.90;;;;;;6275578;22;20030;-88
2022/05/18 06:02:16;;;;;;;8.88;4.32;;;16.70;99.90;;;;;;6276341;22;20031;-89
2022/05/18 06:05:45;;;;;;;8.15;4.50;;;16.90;99.90;;;;;;6279089;22;20083;-90
2022/05/18 06:09:12;;;;;;;8.00;4.30;;;17.00;99.90;;;;;;6287127;22;20038;-89
2022/05/18 06:12:29;;;;;;;8.80;4.20;;;17.10;99.90;;;;;;6212962;23;20020;-89
2022/05/18 06:15:16;;;;;;;12.30;4.50;;;17.30;99.90;;;;;;6193784;23;20092;-89
2022/05/18 06:18:47;;;;;;;9.02;4.10;;;17.50;99.90;;;;;;6065473;23;20125;-92
2022/05/18 06:25:38;;;;;;;6.78;3.58;;;17.90;99.90;;;;;;6067611;23;20010;-89
2022/05/18 06:28:34;;;;;;;6.90;3.75;;;18.30;99.90;;;;;;6065118;23;20026;-87
2022/05/18 06:31:32;;;;;;;6.38;3.38;;;18.50;99.90;;;;;;6066700;23;20062;-88
2022/05/18 06:34:25;;;;;;;5.22;3.72;;;18.70;99.90;;;;;;6064905;23;20022;-92
2022/05/18 06:37:13;;;;;;;5.35;3.47;;;18.90;99.90;;;;;;6070926;23;20038;-88
2022/05/18 06:40:14;;;;;;;6.15;3.90;;;19.10;99.90;;;;;;6072059;23;20022;-88
2022/05/18 06:43:01;;;;;;;5.22;3.28;;;19.40;99.90;;;;;;6203010;22;20023;-90
2022/05/18 06:45:49;;;;;;;7.20;3.65;;;19.80;99.90;;;;;;6280714;22;20466;-90
2022/05/18 06:48:41;;;;;;;6.88;3.25;;;20.20;99.90;;;;;;6280303;22;20023;-90
2022/05/18 06:51:36;;;;;;;4.45;3.08;;;20.70;99.90;;;;;;6280913;22;20027;-89
2022/05/18 06:54:26;;;;;;;4.90;3.00;;;20.90;99.90;;;;;;6282042;22;20023;-91
2022/05/18 06:57:34;;;;;;;3.97;2.75;;;21.40;99.90;;;;;;6286852;22;20089;-90
2022/05/18 07:00:22;;;;;;;6.40;2.88;;;21.70;99.90;;;;;;6280596;22;20303;-91
2022/05/18 07:03:12;;;;;;;5.82;3.00;;;22.10;99.90;;;;;;6258729;22;20028;-89
2022/05/18 07:06:00;;;;;;;3.35;2.50;;;22.50;99.90;;;;;;6275241;22;20024;-88
2022/05/18 07:08:51;;;;;;;5.82;3.20;;;22.70;97.50;;;;;;6250735;22;20107;-89
2022/05/18 07:11:38;;;;;;;5.65;2.85;;;22.80;95.10;;;;;;6271573;22;20469;-89
2022/05/18 07:14:28;;;;;;;4.15;2.72;;;23.10;96.80;;;;;;6275570;22;20020;-90
2022/05/18 07:17:17;;;;;;;3.60;2.65;;;23.70;95.30;;;;;;6254142;22;20109;-89
2022/05/18 07:20:06;;;;;;;4.93;2.97;;;24.10;91.60;;;;;;6273999;22;20023;-90
2022/05/18 07:22:53;;;;;;;5.10;3.05;;;24.00;92.70;;;;;;6253013;22;20049;-86
2022/05/18 07:25:44;;;;;;;3.08;2.30;;;24.50;90.00;;;;;;6273014;22;20097;-89
2022/05/18 07:28:31;;;;;;;5.10;2.63;;;24.80;90.30;;;;;;6275001;22;20094;-89
2022/05/18 07:31:21;;;;;;;4.03;2.72;;;25.40;85.00;;;;;;6273801;22;20426;-88
2022/05/18 07:34:29;;;;;;;6.05;2.42;;;25.60;88.90;;;;;;6254254;22;20588;-88
2022/05/18 07:37:19;;;;;;;8.90;2.63;;;26.00;82.80;;;;;;6268026;22;20430;-89
2022/05/18 07:40:07;;;;;;;6.82;2.72;;;25.80;81.20;;;;;;6276829;22;20119;-87
2022/05/18 07:42:56;;;;;;;9.68;2.70;;;25.50;81.10;;;;;;6264668;22;20031;-89
2022/05/18 07:45:48;;;;;;;4.38;2.95;;;25.50;79.30;;;;;;6265532;22;20138;-87
2022/05/18 07:48:42;;;;;;;6.43;2.60;;;25.70;78.30;;;;;;6292128;22;20048;-89
2022/05/18 07:51:29;;;;;;;3.92;2.25;;;25.80;75.40;;;;;;6295266;22;20092;-86
2022/05/18 07:54:18;;;;;;;2.95;2.28;;;26.00;73.30;;;;;;6296053;22;20026;-89
2022/05/18 07:57:08;;;;;;;4.00;2.55;;;26.20;73.40;;;;;;6265546;22;20042;-86
2022/05/18 07:59:59;;;;;;;4.13;2.08;;;26.50;71.50;;;;;;6263113;22;20024;-87
2022/05/18 08:02:46;;;;;;;5.57;2.42;;;26.90;70.90;;;;;;6279530;22;20122;-86
2022/05/18 08:05:37;;;;;;;2.38;2.17;;;27.00;67.70;;;;;;6261904;22;20103;-87
2022/05/18 08:08:24;;;;;;;5.43;2.55;;;27.20;66.00;;;;;;6253986;22;20028;-86
2022/05/18 08:17:30;;;;;;;4.18;2.92;;;27.80;63.40;;;;;;6273572;22;20023;-85
2022/05/18 08:20:20;;;;;;;3.92;2.53;;;27.10;60.90;;;;;;6273559;22;20020;-89
2022/05/18 08:23:09;;;;;;;5.43;2.90;;;27.00;61.90;;;;;;6276193;22;20098;-87
2022/05/18 08:26:03;;;;;;;7.05;2.50;;;27.10;61.70;;;;;;6275446;22;20038;-87
2022/05/18 08:28:50;;;;;;;4.53;2.88;;;27.00;60.70;;;;;;6255986;22;20019;-86
2022/05/18 08:31:38;;;;;;;4.13;2.78;;;27.30;62.90;;;;;;6252303;22;20124;-87
2022/05/18 08:34:26;;;;;;;5.43;2.35;;;28.00;60.10;;;;;;6276006;22;20028;-87
2022/05/18 08:37:13;;;;;;;4.28;2.67;;;28.40;55.70;;;;;;6275980;22;20030;-88
2022/05/18 08:40:01;;;;;;;3.35;2.38;;;28.30;57.70;;;;;;6281210;22;20027;-89
2022/05/18 08:42:48;;;;;;;4.75;2.40;;;28.70;55.80;;;;;;6275196;22;20020;-89
2022/05/18 08:45:46;;;;;;;3.60;2.70;;;28.50;55.70;;;;;;6274103;22;20430;-86
2022/05/18 08:48:49;;;;;;;3.78;2.25;;;28.80;53.60;;;;;;6254506;22;20038;-87
2022/05/18 08:51:57;;;;;;;2.78;2.30;;;29.00;57.80;;;;;;6274098;22;20031;-89
2022/05/18 08:54:44;;;;;;;4.15;1.88;;;29.60;55.00;;;;;;6274939;22;20019;-88
2022/05/18 08:57:40;;;;;;;2.67;2.25;;;30.30;54.20;;;;;;6276113;22;20051;-85
2022/05/18 09:00:34;;;;;;;5.22;2.45;;;30.30;49.10;;;;;;6275061;22;20090;-85
2022/05/18 09:04:01;;;;;;;2.65;2.10;;;30.00;46.30;;;;;;6252356;22;20467;-87
2022/05/18 09:07:11;;;;;;;3.50;2.42;;;30.30;47.90;;;;;;6276829;22;20020;-88
2022/05/18 09:10:16;;;;;;;3.97;2.30;;;29.80;46.70;;;;;;6276457;22;20027;-85
2022/05/18 09:13:06;;;;;;;3.78;2.20;;;29.20;51.60;;;;;;6275156;22;20103;-89
2022/05/18 09:16:19;;;;;;;4.82;2.15;;;29.70;49.30;;;;;;6274251;22;20325;-87
2022/05/18 09:19:44;;;;;;;3.63;1.85;;;30.10;47.50;;;;;;6275655;22;20024;-88
2022/05/18 09:22:35;;;;;;;5.22;2.50;;;30.20;44.90;;;;;;6221391;22;20038;-86
2022/05/18 09:25:30;;;;;;;2.85;2.08;;;29.00;49.00;;;;;;6274959;22;20027;-89
2022/05/18 09:28:26;;;;;;;2.70;1.90;;;29.80;50.10;;;;;;6275904;22;20450;-89
2022/05/18 09:31:42;;;;;;;2.88;1.90;;;29.70;45.50;;;;;;6275035;22;20020;-89
2022/05/18 09:34:49;;;;;;;5.97;1.63;;;30.40;48.30;;;;;;6274708;22;20039;-88
2022/05/18 09:37:48;;;;;;;5.15;1.45;;;31.40;44.30;;;;;;6276425;22;20085;-86
2022/05/18 09:40:44;;;;;;;3.95;1.23;;;31.60;43.60;;;;;;6274199;22;20024;-87
2022/05/18 09:43:37;;;;;;;2.58;1.13;;;32.40;42.10;;;;;;6250360;22;20019;-88
2022/05/18 09:46:30;;;;;;;6.70;1.65;;;32.60;38.40;;;;;;6276160;22;20024;-88
2022/05/18 09:49:29;;;;;;;2.63;1.20;;;32.10;40.00;;;;;;6274091;22;20505;-90
2022/05/18 09:52:20;;;;;;;3.88;1.73;;;31.40;39.10;;;;;;6253043;22;20027;-90
2022/05/18 09:55:11;;;;;;;3.15;1.58;;;30.30;47.00;;;;;;6273960;22;20024;-86
2022/05/18 09:58:02;;;;;;;;;;;30.80;44.90;;;;;;6275064;22;20057;-88
2022/05/18 10:07:26;;;;;;;2.67;1.80;;;31.30;40.40;;;;;;6277205;22;20271;-88
2022/05/18 10:07:31;;;;;;;5.50;2.20;;;31.00;42.00;;;;;;6275263;22;20273;-90
2022/05/18 10:10:19;;;;;;;7.88;2.13;;;30.70;42.40;;;;;;6254717;22;20101;-88
2022/05/18 10:13:17;;;;;;;2.63;1.90;;;30.90;43.50;;;;;;6273322;22;20023;-90
2022/05/18 10:16:47;;;;;;;2.88;1.70;;;31.40;42.50;;;;;;6275662;22;20117;-88
2022/05/18 10:19:44;;;;;;;2.75;1.58;;;31.80;44.20;;;;;;6277236;22;20027;-88
2022/05/18 10:22:42;;;;;;;2.70;1.70;;;32.00;44.60;;;;;;6277656;22;20024;-88
2022/05/18 10:25:48;;;;;;;3.50;2.05;;;32.10;41.90;;;;;;6256722;22;20085;-87
2022/05/18 10:28:41;;;;;;;2.63;1.60;;;31.90;40.40;;;;;;6275390;22;20023;-87
2022/05/18 10:32:08;;;;;;;5.38;1.83;;;32.40;40.60;;;;;;6274065;22;20034;-86
2022/05/18 10:35:00;;;;;;;2.88;1.80;;;31.70;39.90;;;;;;6252142;22;20370;-86
2022/05/18 10:37:48;;;;;;;3.10;1.88;;;31.70;44.30;;;;;;6273043;22;20529;-88
2022/05/18 10:40:36;;;;;;;3.80;1.70;;;32.00;40.60;;;;;;6273383;22;20024;-84
2022/05/18 10:43:46;;;;;;;5.20;1.85;;;32.00;41.10;;;;;;6275429;22;20049;-84
2022/05/18 10:46:40;;;;;;;3.15;1.95;;;31.80;41.90;;;;;;6271914;22;20272;-87
2022/05/18 10:49:34;;;;;;;4.05;1.80;;;32.40;39.60;;;;;;6274559;22;20038;-87
2022/05/18 10:52:41;;;;;;;3.35;1.98;;;31.90;41.40;;;;;;6251477;22;20089;-86
2022/05/18 10:55:31;;;;;;;2.92;1.80;;;32.50;42.60;;;;;;6251154;22;20020;-88
2022/05/18 10:58:28;;;;;;;2.75;1.83;;;33.10;42.10;;;;;;6275440;22;20085;-88
2022/05/18 11:05:11;;;;;;;4.03;2.20;;;32.50;41.20;;;;;;6274800;22;20012;-91
2022/05/18 11:08:00;;;;;;;2.05;1.85;;;32.20;44.00;;;;;;6264313;22;20046;-89
2022/05/18 11:10:50;;;;;;;3.95;1.67;;;33.10;38.70;;;;;;6276595;22;20161;-89
2022/05/18 11:13:40;;;;;;;3.42;1.95;;;33.50;42.20;;;;;;6274058;22;20031;-86
2022/05/18 11:16:46;;;;;;;3.33;1.80;;;33.90;40.80;;;;;;6275379;22;20360;-87
2022/05/18 11:19:48;;;;;;;4.05;1.90;;;33.30;37.30;;;;;;6274261;22;20019;-89
2022/05/18 11:22:52;;;;;;;3.30;1.83;;;32.00;40.20;;;;;;6275058;22;20019;-87
2022/05/18 11:26:11;;;;;;;4.55;2.17;;;30.80;42.60;;;;;;6252354;22;20423;-86
2022/05/18 11:29:30;;;;;;;5.15;2.38;;;31.60;42.90;;;;;;6257728;22;20027;-88
2022/05/18 11:32:27;;;;;;;3.40;1.60;;;31.90;43.30;;;;;;6252593;22;20400;-86
2022/05/18 11:35:48;;;;;;;3.20;1.70;;;32.70;42.50;;;;;;6273396;22;20028;-87
2022/05/18 11:39:03;;;;;;;3.08;1.77;;;34.00;36.90;;;;;;6231641;22;20137;-86
2022/05/18 11:42:09;;;;;;;4.28;1.90;;;33.20;37.30;;;;;;6273235;22;20625;-88
2022/05/18 11:45:09;;;;;;;3.70;1.60;;;33.10;39.50;;;;;;6280429;22;20027;-86
2022/05/18 11:48:23;;;;;;;2.30;1.58;;;33.80;38.50;;;;;;6275793;22;20035;-87
2022/05/18 11:51:16;;;;;;;2.15;1.50;;;34.10;39.40;;;;;;6273742;22;20047;-92
2022/05/18 11:54:31;;;;;;;3.28;1.40;;;34.80;38.40;;;;;;6253218;22;20053;-87
2022/05/18 11:57:44;;;;;;;2.78;1.90;;;34.40;39.10;;;;;;6277578;22;20062;-89
2022/05/18 12:00:58;;;;;;;2.95;1.60;;;33.80;34.70;;;;;;6278894;22;20035;-90
2022/05/18 12:04:28;;;;;;;4.45;1.60;;;32.40;39.60;;;;;;6279168;22;20039;-89
2022/05/18 12:07:51;;;;;;;7.80;2.00;;;32.70;40.50;;;;;;6207869;22;20023;-89
2022/05/18 12:10:47;;;;;;;5.18;1.88;;;32.60;40.80;;;;;;6166226;22;20028;-86
2022/05/18 12:14:08;;;;;;;3.03;1.20;;;33.70;41.10;;;;;;6274004;22;20105;-88
2022/05/18 12:16:58;;;;;;;1.92;1.20;;;34.60;37.40;;;;;;6275723;22;20102;-89
2022/05/18 12:19:51;;;;;;;1.48;1.10;;;34.60;33.70;;;;;;6255139;22;20424;-85
2022/05/18 12:22:45;;;;;;;3.42;1.40;;;35.30;33.00;;;;;;6276983;22;20069;-86
2022/05/18 12:25:35;;;;;;;2.15;1.00;;;35.80;30.60;;;;;;6278231;22;20330;-90
2022/05/18 12:28:24;;;;;;;4.60;0.90;;;35.30;31.90;;;;;;6276686;22;20043;-88
2022/05/18 12:31:17;;;;;;;2.90;1.00;;;35.40;32.10;;;;;;6276247;22;20051;-87
2022/05/18 12:34:17;;;;;;;2.25;1.30;;;34.30;33.90;;;;;;6277513;22;20031;-88
2022/05/18 12:37:14;;;;;;;2.50;1.25;;;34.40;34.40;;;;;;6277072;22;20034;-89
2022/05/18 12:40:31;;;;;;;1.83;1.20;;;35.50;33.40;;;;;;6278119;22;20085;-88
2022/05/18 12:43:51;;;;;;;3.38;1.38;;;35.80;28.70;;;;;;6278602;22;20023;-87
2022/05/18 12:46:43;;;;;;;2.15;1.13;;;35.00;32.30;;;;;;6276079;22;20028;-87
2022/05/18 12:49:38;;;;;;;3.17;1.00;;;35.60;31.20;;;;;;6276127;22;20083;-87
2022/05/18 12:52:42;;;;;;;1.98;1.17;;;35.30;31.80;;;;;;6278194;22;20034;-87
2022/05/18 12:56:00;;;;;;;10.00;1.30;;;34.60;32.30;;;;;;6274966;22;20023;-88
2022/05/18 12:58:57;;;;;;;2.47;1.20;;;34.70;31.80;;;;;;6273209;22;20034;-87
2022/05/18 13:02:51;;;;;;;5.38;1.38;;;34.50;30.70;;;;;;6276705;22;20084;-89
2022/05/18 13:05:52;;;;;;;2.83;1.20;;;33.60;33.30;;;;;;6284682;22;20027;-84
2022/05/18 13:08:53;;;;;;;1.00;0.85;;;33.40;34.10;;;;;;6256411;22;20043;-86
2022/05/18 13:11:49;;;;;;;6.43;1.27;;;34.30;32.70;;;;;;6282469;22;20023;-86
2022/05/18 13:15:20;;;;;;;1.95;1.23;;;34.90;33.50;;;;;;6283438;22;20024;-88
2022/05/18 13:18:19;;;;;;;1.88;1.17;;;34.70;32.60;;;;;;6284183;22;20047;-86
2022/05/18 13:21:07;;;;;;;3.38;1.48;;;34.80;30.50;;;;;;6282760;22;20055;-86
2022/05/18 13:24:36;;;;;;;3.50;1.30;;;34.70;31.50;;;;;;6276934;22;20019;-86
2022/05/18 13:27:45;;;;;;;2.35;1.20;;;34.30;30.30;;;;;;6275354;22;20038;-90
2022/05/18 13:30:52;;;;;;;7.25;1.40;;;34.00;29.80;;;;;;6274797;22;20038;-89
2022/05/18 13:34:12;;;;;;;2.72;1.40;;;33.40;32.50;;;;;;6261338;22;20038;-88
2022/05/18 13:36:59;;;;;;;;;;;33.30;31.40;;;;;;6279039;22;20020;-90
2022/05/18 13:39:49;;;;;;;2.20;1.30;;;34.00;33.20;;;;;;6275874;22;19919;-90
2022/05/18 13:42:38;;;;;;;2.25;1.35;;;33.70;31.70;;;;;;6256371;22;20027;-89
2022/05/18 13:45:31;;;;;;;3.15;1.48;;;34.60;31.10;;;;;;6277985;22;20026;-88
2022/05/18 13:48:29;;;;;;;2.35;1.08;;;34.70;31.60;;;;;;6275230;22;20026;-88
2022/05/18 13:51:48;;;;;;;5.45;1.10;;;33.70;34.80;;;;;;6275224;22;20027;-88
2022/05/18 13:54:39;;;;;;;4.90;1.55;;;33.90;31.00;;;;;;6275424;22;20029;-87
2022/05/18 13:57:42;;;;;;;2.00;1.30;;;34.00;33.40;;;;;;6275413;22;20023;-92
2022/05/18 14:00:45;;;;;;;1.50;1.10;;;34.60;32.10;;;;;;6255891;22;20618;-87
2022/05/18 14:03:40;;;;;;;2.20;1.35;;;34.60;32.10;;;;;;6278125;22;20023;-89
2022/05/18 14:06:32;;;;;;;2.58;1.20;;;35.00;28.90;;;;;;6276632;22;20031;-86
2022/05/18 14:09:33;;;;;;;4.10;1.00;;;34.30;28.90;;;;;;6273301;22;20055;-84
2022/05/18 14:12:23;;;;;;;2.83;1.25;;;33.90;32.30;;;;;;6270276;22;20024;-84
2022/05/18 14:15:20;;;;;;;2.35;1.10;;;33.60;30.00;;;;;;6268425;22;20047;-85
2022/05/18 14:18:15;;;;;;;2.65;1.13;;;33.40;31.70;;;;;;6273349;22;20035;-86
2022/05/18 14:21:24;;;;;;;2.42;0.90;;;33.60;31.10;;;;;;6274258;22;20308;-88
2022/05/18 14:24:22;;;;;;;3.55;1.42;;;34.20;34.10;;;;;;6273549;22;20031;-88
2022/05/18 14:27:36;;;;;;;4.32;1.42;;;35.10;32.10;;;;;;6254957;22;20027;-83
2022/05/18 14:30:30;;;;;;;1.90;1.10;;;35.20;32.80;;;;;;6275234;22;20358;-86
2022/05/18 14:33:58;;;;;;;4.45;1.23;;;35.30;31.00;;;;;;6273298;22;20038;-86
2022/05/18 14:36:52;;;;;;;1.48;1.00;;;35.80;30.60;;;;;;6273878;22;20038;-85
2022/05/18 14:39:44;;;;;;;2.03;1.08;;;35.30;30.60;;;;;;6275013;22;20089;-87
2022/05/18 14:42:44;;;;;;;1.45;0.98;;;34.90;30.40;;;;;;6275891;22;20023;-86
2022/05/18 14:46:17;;;;;;;1.10;1.00;;;34.90;30.00;;;;;;6259173;22;20441;-84
2022/05/18 14:49:17;;;;;;;1.52;1.30;;;34.90;32.30;;;;;;6272815;22;20388;-87
2022/05/18 14:52:08;;;;;;;2.10;1.23;;;34.90;32.80;;;;;;6274552;22;20068;-86
2022/05/18 14:55:06;;;;;;;3.25;1.38;;;35.10;32.40;;;;;;6274933;22;20023;-85
2022/05/18 14:57:58;;;;;;;3.63;1.73;;;34.50;33.70;;;;;;6280080;22;20042;-90
2022/05/18 15:00:48;;;;;;;2.50;1.70;;;34.50;34.20;;;;;;6277782;22;20062;-86
2022/05/18 15:03:40;;;;;;;2.42;1.58;;;33.20;35.90;;;;;;6256381;22;20023;-87
2022/05/18 15:07:03;;;;;;;3.08;2.00;;;32.30;36.50;;;;;;6254653;22;20364;-90
2022/05/18 15:09:55;;;;;;;4.72;1.95;;;32.00;38.40;;;;;;6253101;22;20028;-86
2022/05/18 15:12:46;;;;;;;2.88;1.63;;;32.50;38.20;;;;;;6269501;22;20024;-81
2022/05/18 15:15:50;;;;;;;4.43;1.60;;;32.20;37.80;;;;;;6271743;22;20027;-83
2022/05/18 15:18:54;;;;;;;3.17;1.92;;;31.40;38.40;;;;;;6267863;22;20019;-83
2022/05/18 15:21:42;;;;;;;3.25;1.77;;;31.70;39.90;;;;;;6270376;22;20023;-87
2022/05/18 15:24:34;;;;;;;3.47;1.73;;;32.60;37.50;;;;;;6276040;22;20029;-84
2022/05/18 15:27:38;;;;;;;6.53;2.33;;;31.90;37.90;;;;;;6275755;22;20366;-90
2022/05/18 15:30:39;;;;;;;3.20;1.60;;;31.10;39.20;;;;;;6273351;22;20088;-86
2022/05/18 15:33:38;;;;;;;2.05;1.70;;;30.70;41.20;;;;;;6254602;22;20035;-89
2022/05/18 15:36:31;;;;;;;4.43;1.83;;;30.80;42.00;;;;;;6274117;22;20039;-86
2022/05/18 15:39:19;;;;;;;4.40;1.73;;;30.70;42.10;;;;;;6274205;22;20107;-88
2022/05/18 15:42:12;;;;;;;4.10;1.98;;;30.60;42.60;;;;;;6272611;22;20023;-86